Terminal Aerodrome Forecast
Issued by NWS Bismarck, ND

Home | Current Version | Previous Version | Text Only | Print | Product List | Glossary On
Versions: 1 2 3 4 5 6 7 8 9 10 11 12 13 14 15 16 17 18 19 20 21 22 23
000
FTUS43 KBIS 040550
TAFBIS
TAF
KBIS 040550Z 0406/0506 16011KT P6SM SCT150
     FM040800 10006KT P6SM SCT150 BKN200
     FM041100 07007KT P6SM VCFG SCT010 BKN180
     FM041500 09006KT P6SM VCSH SCT035 BKN100
     FM042300 08007KT P6SM FEW070 FEW120=

USA.gov is the U.S. government's official web portal to all federal, state and local government web resources and services.